• Join FlightAware (Why Join?)
  • Login
  • US Flag 
05:45PM EDT


 

Airport Tracker/Info


-or-


 

Live Flight TrackerFlight Track Log ✈ UPS1122 ✈ 18-May-2013 ✈ KSDF - KBDL

Flight Track Log - Related Links

Times and Time Zones

All times are in EDT time to prevent confusion due to time zone crossing. See the UPS1122 flight status page for this flight to view local times or setup timezone preferences in your user account.

Time Position Orientation Groundspeed Altitude Reporting Facility
EDT Latitude Longitude Course Direction KTS MPH feet Rate Location/Type
04:43AM 38.1690 -85.7250 189° South 167 192 600  Level FlightAware
04:43AM 38.1500 -85.7190 166° South 164 189 2,000 2,160 Climbing FlightAware
04:44AM 38.1240 -85.7140 171° South 206 237 2,600 1,980 Climbing FlightAware
04:44AM 38.0960 -85.7060 167° South 206 237 4,000 2,520 Climbing FlightAware
04:44AM 38.0900 -85.6990 137° Southeast 214 246 4,300 1,440 Climbing FlightAware
04:45AM 38.0830 -85.6800 115° Southeast 243 280 4,600 1,200 Climbing FlightAware
04:45AM 38.0820 -85.6740 102° East 249 287 4,700 2,580 Climbing FlightAware
04:45AM 38.0910 -85.6380 72° East 269 310 5,900 2,820 Climbing FlightAware
04:45AM 38.1070 -85.6210 40° Northeast 278 320 6,600 2,520 Climbing FlightAware
04:46AM 38.1310 -85.5970 38° Northeast 285 328 7,600 2,520 Climbing FlightAware
04:46AM 38.1490 -85.5780 40° Northeast 288 331 8,300 2,700 Climbing FlightAware
04:46AM 38.1730 -85.5500 43° Northeast 287 330 9,400 2,040 Climbing FlightAware
04:47AM 38.2080 -85.4850 56° Northeast 315 362 10,700 1,320 Climbing FlightAware
04:48AM 38.2470 -85.4090 57° Northeast 365 420 11,400 1,080 Climbing FlightAware
04:49AM 38.2870 -85.3310 57° Northeast 398 458 12,300 1,680 Climbing FlightAware
04:49AM 38.3270 -85.2540 56° Northeast 409 471 13,700 2,160 Climbing FlightAware
04:50AM 38.3780 -85.1570 56° Northeast 420 483 15,400 2,040 Climbing FlightAware
04:51AM 38.4240 -85.0690 56° Northeast 430 495 16,800 1,920 Climbing FlightAware
04:51AM 38.4660 -84.9890 56° Northeast 436 502 18,000 900 Climbing FlightAware
04:52AM 38.5120 -84.9040 55° Northeast 436 502 18,000  Level FlightAware
04:53AM 38.5510 -84.8320 55° Northeast 436 502 18,000  Level FlightAware
04:53AM 38.5910 -84.7610 54° Northeast 436 502 18,000  Level FlightAware
04:54AM 38.6300 -84.6890 55° Northeast 436 502 18,000  Level FlightAware
04:55AM 38.6690 -84.6170 55° Northeast 436 502 18,000 2,340 Level FlightAware
04:59AM 39.0530 -83.8390 57° Northeast 494 568 30,300 2,460 Climbing FlightAware
05:00AM 39.1030 -83.7400 57° Northeast 492 566 31,100 1,080 Climbing FlightAware
05:01AM 39.1580 -83.6290 57° Northeast 492 566 31,900 1,020 Climbing FlightAware
05:01AM 39.2080 -83.5290 57° Northeast 490 564 32,600 1,020 Climbing FlightAware
05:02AM 39.2630 -83.4170 58° Northeast 486 559 33,400 1,080 Climbing FlightAware
05:03AM 39.3120 -83.3170 58° Northeast 481 554 34,200 1,020 Climbing FlightAware
05:03AM 39.3520 -83.2350 58° Northeast 478 550 34,700 600 Climbing FlightAware
05:04AM 39.4040 -83.1290 58° Northeast 477 549 35,000 180 Climbing FlightAware
05:05AM 39.4460 -83.0430 58° Northeast 477 549 35,000  Level FlightAware
05:06AM 39.5070 -82.9170 58° Northeast 484 557 35,000  Level FlightAware
05:06AM 39.5610 -82.8070 57° Northeast 486 559 35,000  Level FlightAware
05:07AM 39.6090 -82.7080 58° Northeast 485 558 35,000  Level FlightAware
05:08AM 39.6640 -82.5940 58° Northeast 483 556 35,000  Level FlightAware
05:08AM 39.7120 -82.4940 58° Northeast 483 556 35,000  Level FlightAware
05:09AM 39.7660 -82.3830 58° Northeast 484 557 35,000  Level FlightAware
05:10AM 39.8130 -82.2840 58° Northeast 485 558 35,000  Level FlightAware
05:11AM 39.8600 -82.1850 58° Northeast 483 556 35,000  Level FlightAware
05:11AM 39.9140 -82.0700 58° Northeast 484 557 35,000  Level FlightAware
05:12AM 39.9620 -81.9690 58° Northeast 486 559 35,000  Level FlightAware
05:13AM 40.0080 -81.8690 59° Northeast 485 558 35,000  Level FlightAware
05:13AM 40.0510 -81.7510 65° Northeast 489 563 35,000  Level FlightAware
05:14AM 40.0800 -81.6380 71° East 490 564 35,000  Level FlightAware
05:15AM 40.1120 -81.5080 72° East 489 563 35,000  Level FlightAware
05:15AM 40.1390 -81.3990 72° East 489 563 35,000  Level FlightAware
05:16AM 40.1680 -81.2800 72° East 489 563 35,000  Level FlightAware
05:17AM 40.1980 -81.1550 73° East 490 564 35,000  Level FlightAware
05:18AM 40.2260 -81.0420 72° East 491 565 35,000  Level FlightAware
05:18AM 40.2580 -80.9090 72° East 494 568 35,000  Level FlightAware
05:19AM 40.2860 -80.7940 72° East 496 571 35,000  Level FlightAware
05:20AM 40.3140 -80.6770 73° East 498 573 35,000  Level FlightAware
05:20AM 40.3440 -80.5510 73° East 499 574 35,000  Level FlightAware
05:21AM 40.3690 -80.4450 73° East 500 575 35,000  Level FlightAware
05:22AM 40.4020 -80.3030 73° East 502 578 35,000  Level FlightAware
05:22AM 40.4300 -80.1810 73° East 502 578 35,000  Level FlightAware
05:23AM 40.4560 -80.0670 73° East 503 579 35,000  Level FlightAware
05:24AM 40.4870 -79.9330 73° East 503 579 35,000  Level FlightAware
05:25AM 40.5140 -79.8170 73° East 503 579 35,000  Level FlightAware
05:25AM 40.5410 -79.6980 73° East 500 575 35,000  Level FlightAware
05:26AM 40.5670 -79.5830 73° East 502 578 35,000  Level FlightAware
05:27AM 40.5980 -79.4460 73° East 504 580 35,000  Level FlightAware
05:27AM 40.6270 -79.3160 74° East 506 582 35,000  Level FlightAware
05:28AM 40.6520 -79.2030 74° East 509 586 35,000  Level FlightAware
05:29AM 40.6830 -79.0650 73° East 510 587 35,000  Level FlightAware
05:29AM 40.7090 -78.9470 74° East 508 585 35,000  Level FlightAware
05:30AM 40.7420 -78.7980 74° East 509 586 35,000  Level FlightAware
05:31AM 40.7670 -78.6780 75° East 510 587 35,000  Level FlightAware
05:32AM 40.7970 -78.5420 74° East 508 585 35,000  Level FlightAware
05:32AM 40.8220 -78.4250 74° East 508 585 35,000  Level FlightAware
05:33AM 40.8500 -78.2900 75° East 509 586 35,000  Level FlightAware
05:34AM 40.8760 -78.1680 74° East 509 586 35,000  Level FlightAware
05:35AM 40.9020 -78.0470 74° East 510 587 35,000  Level FlightAware
05:35AM 40.9300 -77.9110 75° East 512 589 35,000  Level FlightAware
05:36AM 40.9550 -77.7890 75° East 514 592 35,000  Level FlightAware
05:37AM 40.9830 -77.6540 75° East 514 592 35,000  Level FlightAware
05:37AM 41.0080 -77.5300 75° East 515 593 35,000  Level FlightAware
05:38AM 41.0415 -77.3664 75° East 517 595 35,000  Level FlightAware ADS-B
05:39AM 41.0619 -77.2662 75° East 516 594 35,000  Level FlightAware ADS-B
05:39AM 41.0721 -77.2175 74° East 515 593 35,000  Level FlightAware ADS-B
05:39AM 41.0767 -77.1991 72° East 512 589 35,000  Level FlightAware ADS-B
05:39AM 41.1014 -77.1288 65° Northeast 503 579 35,000  Level FlightAware ADS-B
05:40AM 41.1100 -77.1103 58° Northeast 499 574 35,000  Level FlightAware ADS-B
05:40AM 41.1333 -77.0686 53° Northeast 492 566 35,000  Level FlightAware ADS-B
05:40AM 41.1558 -77.0366 47° Northeast 486 559 35,000  Level FlightAware ADS-B
05:41AM 41.2041 -76.9717 45° Northeast 486 559 35,000  Level FlightAware ADS-B
05:41AM 41.2521 -76.9075 45° Northeast 486 559 35,000  Level FlightAware ADS-B
05:42AM 41.3007 -76.8427 45° Northeast 487 560 35,000  Level FlightAware ADS-B
05:42AM 41.3489 -76.7784 45° Northeast 487 560 35,000  Level FlightAware ADS-B
05:43AM 41.3969 -76.7141 45° Northeast 488 562 35,000  Level FlightAware ADS-B
05:43AM 41.4460 -76.6479 45° Northeast 488 562 35,000  Level FlightAware ADS-B
05:44AM 41.4939 -76.5835 45° Northeast 486 559 35,000  Level FlightAware ADS-B
05:44AM 41.5419 -76.5188 45° Northeast 486 559 35,000  Level FlightAware ADS-B
05:45AM 41.5899 -76.4540 45° Northeast 487 560 35,000 -600 Level FlightAware ADS-B
05:45AM 41.6387 -76.3879 45° Northeast 490 564 34,400 -1,320 Descending FlightAware ADS-B
05:46AM 41.6875 -76.3218 45° Northeast 494 568 33,700 -1,200 Descending FlightAware ADS-B
05:46AM 41.7358 -76.2560 45° Northeast 495 570 33,200 -720 Descending FlightAware ADS-B
05:47AM 41.7842 -76.1899 46° Northeast 495 570 33,000 -240 Descending FlightAware ADS-B
05:47AM 41.8331 -76.1229 46° Northeast 496 571 33,000  Level FlightAware ADS-B
05:48AM 41.8884 -76.0464 46° Northeast 494 568 33,000  Level FlightAware ADS-B
05:48AM 41.9364 -75.9799 46° Northeast 493 567 33,000  Level FlightAware ADS-B
05:49AM 41.9886 -75.9074 46° Northeast 493 567 33,000  Level FlightAware ADS-B
05:50AM 42.0520 -75.8190 46° Northeast 493 567 33,000  Level FlightAware
05:50AM 42.1280 -75.7140 46° Northeast 493 567 33,000  Level FlightAware
05:51AM 42.2150 -75.5910 46° Northeast 494 568 33,000 -120 Level FlightAware
05:52AM 42.2770 -75.5000 47° Northeast 503 579 32,900 -600 Descending FlightAware
05:53AM 42.3290 -75.3730 61° Northeast 526 605 32,200 -1,320 Descending FlightAware
05:53AM 42.3560 -75.2560 73° East 531 611 31,200 -2,220 Descending FlightAware
05:54AM 42.3850 -75.1180 74° East 524 603 29,300 -1,380 Descending FlightAware
05:55AM 42.4110 -74.9930 74° East 523 602 29,200 -120 Descending FlightAware
05:55AM 42.4340 -74.8860 74° East 523 602 29,200  Level FlightAware
05:56AM 42.4560 -74.7780 75° East 523 602 29,200  Level FlightAware
05:57AM 42.4790 -74.6710 74° East 523 602 29,200  Level FlightAware
05:57AM 42.5020 -74.5640 74° East 523 602 29,200 -6,120 Level FlightAware
05:58AM 42.4856 -74.4025 74° East 481 554 21,100 -5,640 Descending Boston Center
05:59AM 42.4864 -74.2308 90° East 469 540 19,800 -1,320 Descending Boston Center
06:00AM 42.4869 -74.0589 90° East 464 534 18,500 -900 Descending Boston Center
06:01AM 42.4872 -73.8817 90° East 434 499 18,000 -300 Descending Boston Center
06:02AM 42.4911 -73.7325 88° East 434 499 18,000 -1,440 Level Boston Center
06:03AM 42.4928 -73.5636 89° East 429 494 15,200 -2,100 Descending Boston Center
06:04AM 42.4733 -73.4253 101° East 413 475 13,800 -1,440 Descending Boston Center
06:04AM 42.4444 -73.3797 131° Southeast 415 478 13,400 -1,440 Descending Boston Center
06:05AM 42.3889 -73.3058 135° Southeast 383 441 12,400 -1,440 Descending Boston Center
06:05AM 42.3556 -73.2772 148° Southeast 390 449 11,800 -1,440 Descending Boston Center
06:06AM 42.3039 -73.2344 149° Southeast 357 411 11,000 -1,500 Descending Boston Center
06:06AM 42.2811 -73.2231 160° South 331 381 10,500 -1,920 Descending Boston Center
06:07AM 42.2375 -73.1858 148° Southeast 327 376 9,100 -2,100 Descending Boston Center
06:07AM 42.2064 -73.1689 158° South 302 348 8,400 -2,040 Descending Boston Center
06:08AM 42.1628 -73.1319 148° Southeast 293 337 7,100 -1,800 Descending Boston Center
06:08AM 42.1419 -73.1206 158° South 280 322 6,600 -1,620 Descending Boston Center
06:09AM 42.0964 -73.0808 147° Southeast 271 312 5,500 -1,320 Descending Boston Center
06:09AM 42.0778 -73.0722 161° South 266 306 5,300 -1,140 Descending Boston Center
06:10AM 42.0342 -73.0383 150° Southeast 261 300 4,400 -1,320 Descending Boston Center
06:10AM 42.0133 -73.0242 153° Southeast 264 304 4,000 -420 Descending Boston Center
06:11AM 41.9758 -72.9958 151° Southeast 261 300 4,000  Level Boston Center
06:11AM 41.9469 -72.9761 153° Southeast 259 298 4,000 -240 Level Boston Center
06:12AM 41.9094 -72.9478 151° Southeast 256 295 3,800 -420 Descending Boston Center
06:12AM 41.8908 -72.9364 156° South 228 262 3,600 -540 Descending Boston Center
06:13AM 41.8597 -72.9111 149° Southeast 235 270 3,300 -540 Descending Boston Center
06:13AM 41.8492 -72.8944 130° Southeast 179 206 3,100 -540 Descending Boston Center
06:14AM 41.8264 -72.8608 132° Southeast 203 234 2,800 -420 Descending Boston Center
06:14AM 41.8286 -72.8414 81° East 168 193 2,700 -420 Descending Boston Center
06:15AM 41.8475 -72.8081 53° Northeast 128 147 2,400 -600 Descending Boston Center
06:15AM 41.8581 -72.7942 44° Northeast 166 191 2,100 -840 Descending Boston Center
06:16AM 41.8811 -72.7664 42° Northeast 128 147 1,600 -840 Descending Boston Center
06:17AM 41.8936 -72.7525 40° Northeast 142 163 1,200 -720 Descending Boston Center
06:17AM 41.9061 -72.7331 49° Northeast 135 155 900 -720 Descending Boston Center
06:18AM 41.9186 -72.7192 40° Northeast 131 151 500 -840 Descending Boston Center
06:20AM 41.9333 -72.6833 56° Northeast  Level FlightAware Approximate
06:27AM 41.9392 -72.6834 56° Northeast  Level Estimated
06:28AM 41.9333 -72.6833 56° Northeast  Level FlightAware Approximate